Time;durP1;ratioP1;P1;durP2;ratioP2;P2;SDS_P1;SDS_P2;PMS_P1;PMS_P2;Temp;Humidity;BMP_temperature;BMP_pressure;BME280_temperature;BME280_humidity;BME280_pressure;Samples;Min_cycle;Max_cycle;Signal;HPM_P1;HPM_P2
2024/02/23 00:01:44;;;;;;;1.97;1.10;;;6.10;99.90;;;;;;5007979;28;20204;-57
2024/02/23 00:04:10;;;;;;;1.20;1.00;;;6.10;99.90;;;;;;5008012;28;20435;-57
2024/02/23 00:06:36;;;;;;;1.73;1.10;;;6.00;99.90;;;;;;5011796;28;20499;-54
2024/02/23 00:09:02;;;;;;;4.17;1.20;;;6.00;99.90;;;;;;5004681;28;20427;-58
2024/02/23 00:11:28;;;;;;;0.90;0.90;;;6.00;99.90;;;;;;5010167;28;20654;-57
2024/02/23 00:13:54;;;;;;;0.97;0.97;;;6.00;99.90;;;;;;5007045;28;20754;-56
2024/02/23 00:16:19;;;;;;;0.80;0.80;;;5.90;99.90;;;;;;5011476;28;20443;-57
2024/02/23 00:18:45;;;;;;;1.00;1.00;;;5.90;99.90;;;;;;5010652;28;20193;-55
2024/02/23 00:21:10;;;;;;;1.30;0.90;;;5.90;99.90;;;;;;5009386;28;20650;-57
2024/02/23 00:23:36;;;;;;;1.80;1.10;;;5.90;99.90;;;;;;5002927;28;20211;-55
2024/02/23 00:26:02;;;;;;;1.00;1.00;;;5.90;99.90;;;;;;5010212;28;20247;-56
2024/02/23 00:28:28;;;;;;;0.80;0.80;;;5.90;99.90;;;;;;5002714;28;20647;-58
2024/02/23 00:30:53;;;;;;;1.33;0.93;;;5.80;99.90;;;;;;5006448;28;20416;-55
2024/02/23 00:33:19;;;;;;;1.23;0.80;;;5.80;99.90;;;;;;5008534;28;20175;-56
2024/02/23 00:35:44;;;;;;;2.17;0.90;;;5.70;99.90;;;;;;5007759;28;20215;-55
2024/02/23 00:38:10;;;;;;;1.17;0.80;;;5.60;99.90;;;;;;5007186;28;20269;-56
2024/02/23 00:40:35;;;;;;;2.10;0.80;;;5.50;99.90;;;;;;5005938;28;20609;-57
2024/02/23 00:43:02;;;;;;;1.03;0.80;;;5.30;99.90;;;;;;5010466;28;20246;-55
2024/02/23 00:45:28;;;;;;;1.43;0.83;;;5.20;99.90;;;;;;5008466;28;20741;-57
2024/02/23 00:47:54;;;;;;;0.77;0.77;;;5.00;99.90;;;;;;5004912;28;20466;-58
2024/02/23 00:50:19;;;;;;;0.80;0.80;;;4.90;99.90;;;;;;5004866;28;20268;-56
2024/02/23 00:52:45;;;;;;;1.03;0.90;;;4.80;99.90;;;;;;5009507;28;20223;-55
2024/02/23 00:55:11;;;;;;;0.70;0.70;;;4.70;99.90;;;;;;5006871;28;20197;-56
2024/02/23 00:57:38;;;;;;;0.67;0.67;;;4.60;99.90;;;;;;5003557;28;20264;-58
2024/02/23 01:00:09;;;;;;;0.80;0.80;;;4.40;99.90;;;;;;5007206;28;20200;-55
2024/02/23 01:02:34;;;;;;;0.80;0.80;;;4.40;99.90;;;;;;5012475;28;20415;-58
2024/02/23 01:05:00;;;;;;;0.77;0.77;;;4.30;99.90;;;;;;5007669;28;20505;-56
2024/02/23 01:07:26;;;;;;;0.80;0.80;;;4.30;99.90;;;;;;5009104;28;20647;-54
2024/02/23 01:09:51;;;;;;;0.87;0.80;;;4.30;99.90;;;;;;5009707;28;20175;-55
2024/02/23 01:12:17;;;;;;;0.80;0.80;;;4.30;99.90;;;;;;5013149;28;20227;-55
2024/02/23 01:14:43;;;;;;;0.80;0.80;;;4.30;99.90;;;;;;5010960;28;20710;-56
2024/02/23 01:17:08;;;;;;;0.70;0.70;;;4.30;99.90;;;;;;5019339;28;20184;-57
2024/02/23 01:19:34;;;;;;;0.90;0.80;;;4.30;99.90;;;;;;5016890;28;20636;-55
2024/02/23 01:21:59;;;;;;;0.90;0.70;;;4.30;99.90;;;;;;5013367;28;20180;-58
2024/02/23 01:24:29;;;;;;;1.13;0.80;;;4.30;99.90;;;;;;5009595;28;20580;-59
2024/02/23 01:26:55;;;;;;;0.70;0.70;;;4.30;99.90;;;;;;5015475;28;20199;-56
2024/02/23 01:29:22;;;;;;;0.67;0.67;;;4.30;99.90;;;;;;5008892;28;20435;-56
2024/02/23 01:31:48;;;;;;;0.80;0.80;;;4.30;99.90;;;;;;5014812;28;20427;-58
2024/02/23 01:34:14;;;;;;;1.33;0.80;;;4.30;99.90;;;;;;5011155;28;20438;-56
2024/02/23 01:36:40;;;;;;;0.67;0.67;;;4.40;99.90;;;;;;5013972;28;20856;-57
2024/02/23 01:39:05;;;;;;;0.80;0.80;;;4.40;99.90;;;;;;5010304;28;20181;-59
2024/02/23 01:41:32;;;;;;;0.90;0.90;;;4.40;99.90;;;;;;5014088;28;20184;-55
2024/02/23 01:43:58;;;;;;;0.93;0.90;;;4.40;99.90;;;;;;5008711;28;20219;-59
2024/02/23 01:46:23;;;;;;;1.43;0.80;;;4.40;99.90;;;;;;5008553;28;20469;-56
2024/02/23 01:48:49;;;;;;;1.90;0.80;;;4.30;99.90;;;;;;5006730;28;20173;-56
2024/02/23 01:51:15;;;;;;;1.00;0.80;;;4.40;99.90;;;;;;5004904;28;20173;-57
2024/02/23 01:53:41;;;;;;;0.90;0.90;;;4.30;99.90;;;;;;5010010;28;20230;-57
2024/02/23 01:56:08;;;;;;;0.90;0.90;;;4.30;99.90;;;;;;5011869;28;20439;-54
2024/02/23 01:58:37;;;;;;;6.03;0.97;;;4.30;99.90;;;;;;5008813;28;20683;-56
2024/02/23 02:01:02;;;;;;;0.80;0.80;;;4.20;99.90;;;;;;5005959;28;20631;-55
2024/02/23 02:03:28;;;;;;;3.33;0.93;;;4.20;99.90;;;;;;5013020;28;20420;-58
2024/02/23 02:05:54;;;;;;;1.00;0.90;;;4.20;99.90;;;;;;5007226;28;20204;-57
2024/02/23 02:08:20;;;;;;;2.80;0.90;;;4.20;99.90;;;;;;5014167;28;20241;-58
2024/02/23 02:10:47;;;;;;;0.80;0.80;;;4.20;99.90;;;;;;5009369;28;20868;-56
2024/02/23 02:13:12;;;;;;;0.90;0.90;;;4.20;99.90;;;;;;5008409;28;20766;-58
2024/02/23 02:15:38;;;;;;;0.77;0.77;;;4.10;99.90;;;;;;5008432;28;20566;-55
2024/02/23 02:18:04;;;;;;;1.03;0.90;;;4.10;99.90;;;;;;5007193;28;20183;-55
2024/02/23 02:20:33;;;;;;;0.80;0.80;;;4.10;99.90;;;;;;5008685;28;20267;-55
2024/02/23 02:22:59;;;;;;;2.40;0.90;;;4.10;99.90;;;;;;5010278;28;20443;-58
2024/02/23 02:25:24;;;;;;;1.33;0.80;;;4.00;99.90;;;;;;5009780;28;20457;-58
2024/02/23 02:27:50;;;;;;;1.03;0.90;;;4.00;99.90;;;;;;5009648;28;20426;-54
2024/02/23 02:30:16;;;;;;;1.70;0.90;;;4.00;99.90;;;;;;5005342;28;20726;-56
2024/02/23 02:32:42;;;;;;;0.97;0.87;;;4.00;99.90;;;;;;5008992;28;20412;-56
2024/02/23 02:35:10;;;;;;;1.17;1.07;;;4.00;99.90;;;;;;5012029;28;20211;-57
2024/02/23 02:37:36;;;;;;;0.80;0.80;;;4.00;99.90;;;;;;5006689;28;20202;-54
2024/02/23 02:40:02;;;;;;;10.27;1.00;;;4.00;99.90;;;;;;5013086;28;20403;-56
2024/02/23 02:42:28;;;;;;;0.90;0.90;;;4.00;99.90;;;;;;5007867;28;20415;-57
2024/02/23 02:44:54;;;;;;;1.23;0.87;;;4.10;99.90;;;;;;5009086;28;20592;-56
2024/02/23 02:47:19;;;;;;;2.10;0.83;;;4.10;99.90;;;;;;5012421;28;20424;-57
2024/02/23 02:49:45;;;;;;;3.93;1.40;;;4.10;99.90;;;;;;5009878;28;20187;-54
2024/02/23 02:52:11;;;;;;;1.63;0.90;;;4.10;99.90;;;;;;5012568;28;20169;-55
2024/02/23 02:54:36;;;;;;;1.73;0.90;;;4.10;99.90;;;;;;5009133;28;20197;-56
2024/02/23 02:57:02;;;;;;;2.27;1.00;;;4.10;99.90;;;;;;5003170;28;20271;-55
2024/02/23 02:59:27;;;;;;;0.80;0.80;;;4.10;99.90;;;;;;5006122;28;20181;-58
2024/02/23 03:01:53;;;;;;;2.50;0.90;;;4.10;99.90;;;;;;5009212;28;20177;-54
2024/02/23 03:04:19;;;;;;;0.87;0.87;;;4.10;99.90;;;;;;5012984;28;20287;-53
2024/02/23 03:06:44;;;;;;;0.90;0.90;;;4.10;99.90;;;;;;5009713;28;20203;-56
2024/02/23 03:09:10;;;;;;;3.70;1.00;;;4.10;99.90;;;;;;5003982;28;20221;-57
2024/02/23 03:11:36;;;;;;;3.13;1.23;;;4.10;99.90;;;;;;5001033;28;20172;-55
2024/02/23 03:14:01;;;;;;;3.10;1.50;;;4.10;99.90;;;;;;5004075;28;20235;-54
2024/02/23 03:16:30;;;;;;;4.63;1.00;;;4.00;99.90;;;;;;5006810;28;20188;-57
2024/02/23 03:18:56;;;;;;;1.97;0.90;;;4.00;99.90;;;;;;5007155;28;20419;-57
2024/02/23 03:21:22;;;;;;;4.23;1.20;;;4.00;99.90;;;;;;5006077;28;20567;-54
2024/02/23 03:23:48;;;;;;;1.33;1.23;;;4.00;99.90;;;;;;5007621;28;20639;-55
2024/02/23 03:26:16;;;;;;;1.23;1.07;;;4.00;99.90;;;;;;5007215;28;20299;-56
2024/02/23 03:28:42;;;;;;;1.77;0.90;;;4.00;99.90;;;;;;5014227;28;20422;-55
2024/02/23 03:31:08;;;;;;;4.70;1.30;;;4.00;99.90;;;;;;5004650;28;20432;-55
2024/02/23 03:33:33;;;;;;;2.67;1.20;;;4.00;99.90;;;;;;5012064;28;20175;-54
2024/02/23 03:35:59;;;;;;;2.20;1.03;;;4.00;99.90;;;;;;5013239;28;20298;-56
2024/02/23 03:38:25;;;;;;;1.70;0.97;;;4.00;99.90;;;;;;5010264;28;20184;-57
2024/02/23 03:40:50;;;;;;;1.43;1.30;;;4.00;99.90;;;;;;5008395;28;20268;-54
2024/02/23 03:43:16;;;;;;;0.90;0.90;;;3.90;99.90;;;;;;5011907;28;21107;-54
2024/02/23 03:45:41;;;;;;;1.53;1.23;;;3.90;99.90;;;;;;5003511;28;20679;-54
2024/02/23 03:48:07;;;;;;;2.73;1.23;;;3.90;99.90;;;;;;5006139;28;20173;-57
2024/02/23 03:50:33;;;;;;;5.80;1.00;;;3.90;99.90;;;;;;5007480;28;20176;-55
2024/02/23 03:52:58;;;;;;;0.87;0.87;;;3.90;99.90;;;;;;5008704;28;20164;-55
2024/02/23 03:55:24;;;;;;;1.97;1.00;;;3.90;99.90;;;;;;5006104;28;20846;-54
2024/02/23 03:57:50;;;;;;;1.23;1.13;;;3.90;99.90;;;;;;5003060;28;20190;-57
2024/02/23 04:00:17;;;;;;;0.90;0.90;;;3.90;99.90;;;;;;5004928;28;20255;-58
2024/02/23 04:02:42;;;;;;;1.40;1.30;;;3.90;99.90;;;;;;5002988;28;20179;-54
2024/02/23 04:05:09;;;;;;;2.00;1.00;;;3.90;99.90;;;;;;5013017;28;20437;-54
2024/02/23 04:07:35;;;;;;;1.90;1.30;;;3.80;99.90;;;;;;5007519;28;20183;-55
2024/02/23 04:10:00;;;;;;;1.67;1.17;;;3.80;99.90;;;;;;5007712;28;20422;-55
2024/02/23 04:12:26;;;;;;;1.30;1.20;;;3.80;99.90;;;;;;5008086;28;20160;-57
2024/02/23 04:14:51;;;;;;;3.07;1.37;;;3.80;99.90;;;;;;5007665;28;20566;-58
2024/02/23 04:17:17;;;;;;;2.27;1.50;;;3.80;99.90;;;;;;5007521;28;20191;-55
2024/02/23 04:19:43;;;;;;;5.17;1.47;;;3.80;99.90;;;;;;5006213;28;20668;-59
2024/02/23 04:22:12;;;;;;;1.50;1.27;;;3.80;99.90;;;;;;5003660;28;20538;-56
2024/02/23 04:24:41;;;;;;;1.43;1.30;;;3.80;99.90;;;;;;5007375;28;20430;-54
2024/02/23 04:27:07;;;;;;;4.70;1.40;;;3.80;99.90;;;;;;5004852;28;20475;-56
2024/02/23 04:29:33;;;;;;;4.20;1.60;;;3.80;99.90;;;;;;5006218;28;20813;-56
2024/02/23 04:32:02;;;;;;;3.30;1.63;;;3.70;99.90;;;;;;5008079;28;20500;-55
2024/02/23 04:34:29;;;;;;;4.60;1.73;;;3.70;99.90;;;;;;5007127;28;20866;-58
2024/02/23 04:36:55;;;;;;;3.50;1.47;;;3.70;99.90;;;;;;5008660;28;20592;-57
2024/02/23 04:39:21;;;;;;;2.53;1.37;;;3.70;99.90;;;;;;5009345;28;20940;-57
2024/02/23 04:41:47;;;;;;;1.40;1.30;;;3.80;99.90;;;;;;5000825;28;20791;-57
2024/02/23 04:44:12;;;;;;;2.50;1.50;;;3.80;99.90;;;;;;5006987;28;20453;-59
2024/02/23 04:46:38;;;;;;;7.07;1.73;;;3.80;99.90;;;;;;5008012;28;20475;-57
2024/02/23 04:49:03;;;;;;;2.73;1.10;;;3.70;99.90;;;;;;5015900;28;20170;-56
2024/02/23 04:51:29;;;;;;;2.70;1.20;;;3.70;99.90;;;;;;5008704;28;20639;-55
2024/02/23 04:53:55;;;;;;;1.37;1.27;;;3.70;99.90;;;;;;5009551;28;20695;-58
2024/02/23 04:56:20;;;;;;;3.60;1.80;;;3.80;99.90;;;;;;5003319;28;20211;-54
2024/02/23 04:58:46;;;;;;;2.20;1.80;;;3.70;99.90;;;;;;5011158;28;20188;-58
2024/02/23 05:01:12;;;;;;;3.03;2.33;;;3.70;99.90;;;;;;5003804;28;20183;-55
2024/02/23 05:03:38;;;;;;;2.70;2.50;;;3.70;99.90;;;;;;5009299;28;20486;-54
2024/02/23 05:06:04;;;;;;;2.93;1.83;;;3.70;99.90;;;;;;5007033;28;20219;-55
2024/02/23 05:08:30;;;;;;;1.70;1.57;;;3.70;99.90;;;;;;5007602;28;20169;-55
2024/02/23 05:10:59;;;;;;;1.63;1.40;;;3.70;99.90;;;;;;5008707;28;20418;-59
2024/02/23 05:13:25;;;;;;;3.07;2.07;;;3.70;99.90;;;;;;4998417;28;20431;-60
2024/02/23 05:15:50;;;;;;;5.67;3.60;;;3.70;99.90;;;;;;5004594;28;20540;-58
2024/02/23 05:18:16;;;;;;;5.93;2.70;;;3.70;99.90;;;;;;5001146;28;20184;-59
2024/02/23 05:20:41;;;;;;;3.80;2.20;;;3.70;99.90;;;;;;5035876;22;20223;-59
2024/02/23 05:23:07;;;;;;;2.37;1.33;;;3.60;99.90;;;;;;5010403;28;20177;-59
2024/02/23 05:25:33;;;;;;;3.73;1.53;;;3.60;99.90;;;;;;5009394;28;20200;-59
2024/02/23 05:27:59;;;;;;;2.17;1.37;;;3.60;99.90;;;;;;5010251;28;20248;-58
2024/02/23 05:30:26;;;;;;;4.07;1.13;;;3.60;99.90;;;;;;5009247;28;20241;-59
2024/02/23 05:32:52;;;;;;;3.23;1.43;;;3.60;99.90;;;;;;5007593;28;20797;-59
2024/02/23 05:35:18;;;;;;;3.40;1.20;;;3.60;99.90;;;;;;5004014;28;20432;-59
2024/02/23 05:37:43;;;;;;;3.33;1.40;;;3.60;99.90;;;;;;4996559;28;20244;-59
2024/02/23 05:40:12;;;;;;;3.40;1.53;;;3.50;99.90;;;;;;5005233;28;20193;-59
2024/02/23 05:42:38;;;;;;;1.87;1.20;;;3.50;99.90;;;;;;5010404;28;20251;-57
2024/02/23 05:45:04;;;;;;;1.80;1.70;;;3.50;99.90;;;;;;5012992;28;20412;-58
2024/02/23 05:47:32;;;;;;;1.70;1.50;;;3.50;99.90;;;;;;5002874;28;20786;-58
2024/02/23 05:49:58;;;;;;;2.73;1.70;;;3.50;99.90;;;;;;5011732;28;20505;-59
2024/02/23 05:52:24;;;;;;;4.77;2.97;;;3.50;99.90;;;;;;5014592;28;20430;-59
2024/02/23 05:54:49;;;;;;;2.90;1.30;;;3.50;99.90;;;;;;5009797;28;20267;-59
2024/02/23 05:57:15;;;;;;;2.00;1.47;;;3.40;99.90;;;;;;5006508;28;20187;-59
2024/02/23 05:59:40;;;;;;;1.80;1.70;;;3.40;99.90;;;;;;5009656;28;20214;-58
2024/02/23 06:02:06;;;;;;;1.40;1.30;;;3.40;99.90;;;;;;5011191;28;20176;-58
2024/02/23 06:04:31;;;;;;;2.00;1.50;;;3.40;99.90;;;;;;5006850;28;20674;-59
2024/02/23 06:06:57;;;;;;;3.40;2.13;;;3.40;99.90;;;;;;5008064;28;20208;-60
2024/02/23 06:09:23;;;;;;;4.20;1.90;;;3.30;99.90;;;;;;5017312;28;20187;-60
2024/02/23 06:11:48;;;;;;;9.57;1.93;;;3.40;99.90;;;;;;5013022;28;20698;-58
2024/02/23 06:14:14;;;;;;;2.30;1.40;;;3.40;99.90;;;;;;5018939;28;20199;-59
2024/02/23 06:16:40;;;;;;;2.90;1.90;;;3.30;99.90;;;;;;5009298;28;20231;-59
2024/02/23 06:19:06;;;;;;;1.80;1.30;;;3.30;99.90;;;;;;5010129;28;20263;-59
2024/02/23 06:21:32;;;;;;;6.00;2.10;;;3.30;99.90;;;;;;5009171;28;20784;-58
2024/02/23 06:23:58;;;;;;;3.03;1.97;;;3.30;99.90;;;;;;5011192;28;20241;-59
2024/02/23 06:26:23;;;;;;;2.53;1.60;;;3.30;99.90;;;;;;5014487;28;20458;-59
2024/02/23 06:28:49;;;;;;;1.73;1.63;;;3.30;99.90;;;;;;5013385;28;20200;-59
2024/02/23 06:31:15;;;;;;;4.90;1.80;;;3.30;99.90;;;;;;5009269;28;20232;-59
2024/02/23 06:33:41;;;;;;;8.90;3.67;;;3.30;99.90;;;;;;5010036;28;20176;-60
2024/02/23 06:36:07;;;;;;;5.03;2.70;;;3.30;99.90;;;;;;5005806;28;20432;-58
2024/02/23 06:38:33;;;;;;;7.93;2.93;;;3.30;99.90;;;;;;5016406;28;20203;-59
2024/02/23 06:40:59;;;;;;;4.90;2.53;;;3.30;99.90;;;;;;5009511;28;20451;-59
2024/02/23 06:43:24;;;;;;;3.43;2.60;;;3.30;99.90;;;;;;5013065;28;20809;-59
2024/02/23 06:45:50;;;;;;;2.60;2.03;;;3.30;99.90;;;;;;5008624;28;20199;-59
2024/02/23 06:48:16;;;;;;;5.13;2.00;;;3.30;99.90;;;;;;5009264;28;20173;-59
2024/02/23 06:50:42;;;;;;;2.00;1.80;;;3.30;99.90;;;;;;5009418;28;20427;-59
2024/02/23 06:53:08;;;;;;;6.80;2.13;;;3.30;99.90;;;;;;5007368;28;20415;-59
2024/02/23 06:55:34;;;;;;;3.23;1.70;;;3.30;99.90;;;;;;5007138;28;20691;-58
2024/02/23 06:58:00;;;;;;;4.07;1.80;;;3.30;99.90;;;;;;5009046;28;20187;-59
2024/02/23 07:00:25;;;;;;;4.07;1.77;;;3.30;99.90;;;;;;5011928;28;20450;-59
2024/02/23 07:02:51;;;;;;;3.77;2.37;;;3.30;99.90;;;;;;5004993;28;20192;-58
2024/02/23 07:05:17;;;;;;;3.63;2.10;;;3.30;99.90;;;;;;5008933;28;20769;-59
2024/02/23 07:07:42;;;;;;;5.50;1.83;;;3.30;99.90;;;;;;5007771;28;20311;-61
2024/02/23 07:10:08;;;;;;;2.43;1.73;;;3.30;99.90;;;;;;5009709;28;20885;-58
2024/02/23 07:12:35;;;;;;;1.40;1.30;;;3.30;99.90;;;;;;5005039;28;20204;-58
2024/02/23 07:15:00;;;;;;;5.07;1.80;;;3.30;99.90;;;;;;5010210;28;20427;-60
2024/02/23 07:17:26;;;;;;;2.10;1.70;;;3.20;99.90;;;;;;5012276;28;20423;-58
2024/02/23 07:19:52;;;;;;;4.20;1.37;;;3.20;99.90;;;;;;5007371;28;20759;-58
2024/02/23 07:22:18;;;;;;;1.73;1.63;;;3.30;99.90;;;;;;5008605;28;20176;-59
2024/02/23 07:24:44;;;;;;;2.20;1.80;;;3.30;99.90;;;;;;5011350;28;21273;-60
2024/02/23 07:27:10;;;;;;;4.23;2.20;;;3.30;99.90;;;;;;5000950;28;20541;-59
2024/02/23 07:29:36;;;;;;;3.63;2.00;;;3.20;99.90;;;;;;5009457;28;20711;-59
2024/02/23 07:32:02;;;;;;;2.10;1.50;;;3.20;99.90;;;;;;5007846;28;20199;-59
2024/02/23 07:34:27;;;;;;;1.57;1.47;;;3.30;99.90;;;;;;5009523;28;20176;-60
2024/02/23 07:36:53;;;;;;;1.93;1.43;;;3.30;99.90;;;;;;5004748;28;20466;-58
2024/02/23 07:39:20;;;;;;;4.97;1.70;;;3.30;99.90;;;;;;5013597;28;20180;-59
2024/02/23 07:41:45;;;;;;;3.67;1.80;;;3.30;99.90;;;;;;5011810;28;20442;-60
2024/02/23 07:44:11;;;;;;;4.20;1.83;;;3.30;99.90;;;;;;5012391;28;20415;-59
2024/02/23 07:46:37;;;;;;;7.03;2.03;;;3.30;99.90;;;;;;5007234;28;20258;-59
2024/02/23 07:49:04;;;;;;;2.43;1.70;;;3.30;99.90;;;;;;5006500;28;20631;-58
2024/02/23 07:51:29;;;;;;;2.63;1.90;;;3.30;99.90;;;;;;5007898;28;20207;-60
2024/02/23 07:53:55;;;;;;;2.60;2.00;;;3.30;99.90;;;;;;5011018;28;20422;-59
2024/02/23 07:56:21;;;;;;;3.33;2.37;;;3.30;99.90;;;;;;5011878;28;20723;-59
2024/02/23 07:58:46;;;;;;;5.87;2.30;;;3.20;99.90;;;;;;5008816;28;20172;-58
2024/02/23 08:01:14;;;;;;;4.07;1.60;;;3.30;99.90;;;;;;5012600;28;20250;-59
2024/02/23 08:03:40;;;;;;;2.93;2.40;;;3.20;99.90;;;;;;5005692;28;20250;-59
2024/02/23 08:06:06;;;;;;;7.33;3.13;;;3.20;99.90;;;;;;5007331;28;20455;-59
2024/02/23 08:08:34;;;;;;;3.20;2.90;;;3.20;99.90;;;;;;5009757;28;20437;-59
2024/02/23 08:11:01;;;;;;;7.87;2.63;;;3.20;99.90;;;;;;5009717;28;20197;-60
2024/02/23 08:13:27;;;;;;;4.93;1.80;;;3.20;99.90;;;;;;5009133;28;20418;-59
2024/02/23 08:15:52;;;;;;;11.20;3.13;;;3.20;99.90;;;;;;5013866;28;20415;-59
2024/02/23 08:18:18;;;;;;;4.20;1.73;;;3.20;99.90;;;;;;5006844;28;20704;-60
2024/02/23 08:20:44;;;;;;;7.40;2.23;;;3.20;99.90;;;;;;5004720;28;20303;-58
2024/02/23 08:23:09;;;;;;;6.00;1.73;;;3.20;99.90;;;;;;5009585;28;20616;-59
2024/02/23 08:25:36;;;;;;;5.80;2.33;;;3.30;99.90;;;;;;5010868;28;20323;-59
2024/02/23 08:28:02;;;;;;;2.20;1.87;;;3.30;99.90;;;;;;5006812;28;20179;-58
2024/02/23 08:30:28;;;;;;;10.77;1.53;;;3.30;99.90;;;;;;5011729;28;20513;-60
2024/02/23 08:32:54;;;;;;;5.27;1.90;;;3.40;99.90;;;;;;5010813;28;20181;-58
2024/02/23 08:35:20;;;;;;;4.43;1.93;;;3.40;99.90;;;;;;5007504;28;20419;-60
2024/02/23 08:37:46;;;;;;;5.07;1.80;;;3.40;99.90;;;;;;5003997;28;20443;-60
2024/02/23 08:40:12;;;;;;;9.13;1.90;;;3.50;99.90;;;;;;5003770;28;20195;-59
2024/02/23 08:42:37;;;;;;;6.30;2.30;;;3.50;99.90;;;;;;5011219;28;20545;-59
2024/02/23 08:45:04;;;;;;;5.67;2.30;;;3.60;99.90;;;;;;5005567;28;20695;-59
2024/02/23 08:47:33;;;;;;;10.30;3.27;;;3.50;99.90;;;;;;5007889;28;20497;-59
2024/02/23 08:49:58;;;;;;;7.67;3.80;;;3.60;99.90;;;;;;5001168;28;20482;-59
2024/02/23 08:52:25;;;;;;;11.67;3.47;;;3.60;99.90;;;;;;5005972;28;20791;-60
2024/02/23 08:54:51;;;;;;;12.53;3.67;;;3.60;99.90;;;;;;5003815;28;20231;-59
2024/02/23 08:57:19;;;;;;;7.87;3.40;;;3.60;99.90;;;;;;5004142;28;20527;-60
2024/02/23 08:59:45;;;;;;;7.50;3.90;;;3.70;99.90;;;;;;5009176;28;20813;-62
2024/02/23 09:02:12;;;;;;;7.37;2.90;;;3.70;99.90;;;;;;5009852;28;20497;-62
2024/02/23 09:04:37;;;;;;;13.67;3.37;;;3.70;99.90;;;;;;4997504;28;20435;-58
2024/02/23 09:07:03;;;;;;;9.60;2.27;;;3.80;99.90;;;;;;5011978;28;20718;-58
2024/02/23 09:09:29;;;;;;;7.93;2.33;;;3.80;99.90;;;;;;5000666;28;20191;-61
2024/02/23 09:11:55;;;;;;;5.53;2.37;;;3.80;99.90;;;;;;5006762;28;20204;-61
2024/02/23 09:14:21;;;;;;;6.53;2.67;;;3.90;99.90;;;;;;5007427;28;20944;-61
2024/02/23 09:16:50;;;;;;;9.77;1.80;;;3.90;99.90;;;;;;5005569;28;20184;-59
2024/02/23 09:19:16;;;;;;;11.80;1.90;;;4.00;99.90;;;;;;5007630;28;20184;-59
2024/02/23 09:21:41;;;;;;;11.07;2.77;;;4.00;99.90;;;;;;5012512;28;20512;-59
2024/02/23 09:24:07;;;;;;;5.77;2.17;;;4.10;99.90;;;;;;5016353;28;20459;-60
2024/02/23 09:26:33;;;;;;;4.93;2.47;;;4.10;99.90;;;;;;5011300;28;20286;-59
2024/02/23 09:28:59;;;;;;;2.23;1.70;;;4.20;99.90;;;;;;5004017;28;20176;-59
2024/02/23 09:31:26;;;;;;;6.67;2.20;;;4.20;99.90;;;;;;5007301;28;20209;-60
2024/02/23 09:33:51;;;;;;;4.87;1.90;;;4.20;99.90;;;;;;5011508;28;20187;-60
2024/02/23 09:36:17;;;;;;;4.90;2.00;;;4.20;99.90;;;;;;5010718;28;20441;-59
2024/02/23 09:38:45;;;;;;;7.13;1.87;;;4.10;99.90;;;;;;5010562;28;20184;-61
2024/02/23 09:41:19;;;;;;;9.30;3.50;;;4.10;99.90;;;;;;5012732;28;20199;-59
2024/02/23 09:43:46;;;;;;;8.73;2.00;;;4.10;99.90;;;;;;5012925;28;20420;-59
2024/02/23 09:46:12;;;;;;;16.30;2.20;;;4.10;99.90;;;;;;5007334;28;20459;-61
2024/02/23 09:48:38;;;;;;;4.10;1.80;;;4.20;99.90;;;;;;5008442;28;20498;-60
2024/02/23 09:51:06;;;;;;;6.17;1.83;;;4.20;99.90;;;;;;5009359;28;20427;-59
2024/02/23 09:53:36;;;;;;;4.00;2.20;;;4.20;99.90;;;;;;5009156;28;20419;-59
2024/02/23 09:56:03;;;;;;;8.10;2.40;;;4.20;99.90;;;;;;5005393;28;20937;-59
2024/02/23 09:58:29;;;;;;;5.37;1.80;;;4.30;99.90;;;;;;5013945;28;20849;-62
2024/02/23 10:00:58;;;;;;;9.97;1.93;;;4.30;99.90;;;;;;5009341;28;20455;-59
2024/02/23 10:03:30;;;;;;;15.67;2.53;;;4.30;99.90;;;;;;5006481;28;20426;-60
2024/02/23 10:05:56;;;;;;;4.57;1.87;;;4.30;99.90;;;;;;5004616;28;20545;-59
2024/02/23 10:08:22;;;;;;;13.40;1.80;;;4.40;99.90;;;;;;5013764;28;20534;-60
2024/02/23 10:10:50;;;;;;;5.40;2.33;;;4.40;99.90;;;;;;5009051;28;20454;-61
2024/02/23 10:13:29;;;;;;;3.93;2.13;;;4.40;99.90;;;;;;5008910;28;20186;-59
2024/02/23 10:15:55;;;;;;;5.87;1.87;;;4.50;99.90;;;;;;5014562;28;20498;-59
2024/02/23 10:18:20;;;;;;;7.50;2.07;;;4.50;99.90;;;;;;5007071;28;20466;-60
2024/02/23 10:20:47;;;;;;;14.63;2.10;;;4.60;99.90;;;;;;5009225;28;20455;-59
2024/02/23 10:23:13;;;;;;;9.40;2.10;;;4.60;99.90;;;;;;5012125;28;20714;-59
2024/02/23 10:25:39;;;;;;;6.93;1.87;;;4.70;99.90;;;;;;5008605;28;20471;-60
2024/02/23 10:28:06;;;;;;;3.53;1.83;;;4.80;99.90;;;;;;5009331;28;20181;-60
2024/02/23 10:30:32;;;;;;;8.03;1.90;;;4.80;99.90;;;;;;5014378;28;20446;-59
2024/02/23 10:32:59;;;;;;;9.50;2.00;;;4.90;99.90;;;;;;5007974;28;20445;-60
2024/02/23 10:35:26;;;;;;;13.10;1.80;;;4.90;99.90;;;;;;5011561;28;20428;-60
2024/02/23 10:37:53;;;;;;;2.70;1.60;;;4.90;99.90;;;;;;5004557;28;20435;-61
2024/02/23 10:40:20;;;;;;;4.40;1.80;;;4.90;99.90;;;;;;5012486;28;20489;-63
2024/02/23 10:42:53;;;;;;;4.83;1.47;;;4.90;99.90;;;;;;5009726;28;20420;-61
2024/02/23 10:45:24;;;;;;;5.00;2.13;;;4.90;99.90;;;;;;5013461;28;20438;-61
2024/02/23 10:47:50;;;;;;;9.17;2.03;;;4.90;99.90;;;;;;5010133;28;20419;-60
2024/02/23 10:50:19;;;;;;;7.03;1.67;;;4.90;99.90;;;;;;5015565;28;20478;-60
2024/02/23 10:52:45;;;;;;;5.43;2.33;;;4.90;99.90;;;;;;5005917;28;20419;-63
2024/02/23 10:55:12;;;;;;;8.37;1.80;;;4.90;99.90;;;;;;5010681;28;20948;-62
2024/02/23 10:57:39;;;;;;;4.00;1.80;;;4.90;99.90;;;;;;5009714;28;20446;-61
2024/02/23 11:00:09;;;;;;;5.83;2.33;;;4.90;99.90;;;;;;5007935;28;20451;-60
2024/02/23 11:02:50;;;;;;;6.07;1.63;;;4.90;99.90;;;;;;5007204;28;20414;-60
2024/02/23 11:05:16;;;;;;;8.43;1.63;;;4.90;99.90;;;;;;5008781;28;20427;-59
2024/02/23 11:07:42;;;;;;;5.20;1.57;;;4.90;99.90;;;;;;5007304;28;20426;-60
2024/02/23 11:10:09;;;;;;;4.67;2.10;;;5.00;99.90;;;;;;5006574;28;20439;-61
2024/02/23 11:12:35;;;;;;;3.77;1.83;;;5.10;99.90;;;;;;5009001;28;20310;-60
2024/02/23 11:15:02;;;;;;;7.33;1.80;;;5.10;99.90;;;;;;5003450;28;20431;-60
2024/02/23 11:17:30;;;;;;;3.83;1.67;;;5.10;99.90;;;;;;5008603;28;20518;-60
2024/02/23 11:20:03;;;;;;;3.70;2.07;;;5.20;99.90;;;;;;5007520;28;20505;-58
2024/02/23 11:22:37;;;;;;;11.80;3.27;;;5.20;99.90;;;;;;5006401;28;20529;-59
2024/02/23 11:25:10;;;;;;;8.37;2.70;;;5.20;99.90;;;;;;5009827;28;20411;-60
2024/02/23 11:27:37;;;;;;;6.33;2.73;;;5.20;99.90;;;;;;5006973;28;20486;-59
2024/02/23 11:30:08;;;;;;;14.43;2.43;;;5.30;99.90;;;;;;5012024;28;20442;-60
2024/02/23 11:32:38;;;;;;;12.27;2.10;;;5.30;99.90;;;;;;5000553;28;20429;-60
2024/02/23 11:35:06;;;;;;;7.90;1.87;;;5.30;99.90;;;;;;5013850;28;20463;-60
2024/02/23 11:37:32;;;;;;;5.03;1.80;;;5.50;99.90;;;;;;5009297;28;20415;-58
2024/02/23 11:40:01;;;;;;;10.70;1.97;;;5.70;99.90;;;;;;5007020;28;20447;-60
2024/02/23 11:42:27;;;;;;;3.70;1.80;;;5.90;99.90;;;;;;5001135;28;20427;-60
2024/02/23 11:44:57;;;;;;;4.73;1.70;;;6.10;99.90;;;;;;5001857;28;20455;-59
2024/02/23 11:47:22;;;;;;;5.60;2.37;;;6.10;99.90;;;;;;5009029;28;20446;-59
2024/02/23 11:49:48;;;;;;;2.50;1.70;;;6.10;99.90;;;;;;5010280;28;20439;-60
2024/02/23 11:52:15;;;;;;;10.20;2.43;;;6.00;99.90;;;;;;5009896;28;20188;-60
2024/02/23 11:54:41;;;;;;;5.47;2.07;;;6.00;99.90;;;;;;5018486;28;20168;-60
2024/02/23 11:57:07;;;;;;;4.80;2.17;;;6.10;99.90;;;;;;5009807;28;20431;-60
2024/02/23 11:59:32;;;;;;;7.17;2.10;;;6.30;99.90;;;;;;5005396;28;20643;-59
2024/02/23 12:01:58;;;;;;;4.00;1.50;;;6.50;99.90;;;;;;5010364;28;21035;-60
2024/02/23 12:04:26;;;;;;;4.63;1.80;;;6.70;98.40;;;;;;5011625;28;20207;-59
2024/02/23 12:06:52;;;;;;;8.10;2.10;;;6.80;95.30;;;;;;5007180;28;20722;-60
2024/02/23 12:09:18;;;;;;;4.67;1.53;;;6.70;92.00;;;;;;5003807;28;20466;-59
2024/02/23 12:11:43;;;;;;;7.60;1.87;;;6.70;87.30;;;;;;5004316;28;20727;-59
2024/02/23 12:14:09;;;;;;;6.90;2.10;;;6.50;88.00;;;;;;5007607;28;20177;-60
2024/02/23 12:16:38;;;;;;;5.47;2.00;;;6.40;90.00;;;;;;5004694;28;20184;-58
2024/02/23 12:19:03;;;;;;;7.27;1.73;;;6.30;87.80;;;;;;5006678;28;20184;-60
2024/02/23 12:21:29;;;;;;;9.07;2.10;;;6.20;82.00;;;;;;5007906;28;20526;-60
2024/02/23 12:23:55;;;;;;;9.17;2.10;;;6.10;82.20;;;;;;5007383;28;20257;-60
2024/02/23 12:26:21;;;;;;;4.67;1.80;;;6.00;80.80;;;;;;5001793;28;20280;-60
2024/02/23 12:28:46;;;;;;;4.97;1.53;;;5.90;81.70;;;;;;5004942;28;20199;-60
2024/02/23 12:31:12;;;;;;;5.90;2.10;;;5.90;85.90;;;;;;5007563;28;20282;-60
2024/02/23 12:33:39;;;;;;;3.47;1.50;;;5.90;84.20;;;;;;5004241;28;20188;-60
2024/02/23 12:36:06;;;;;;;7.10;1.80;;;6.00;83.40;;;;;;5008467;28;20485;-59
2024/02/23 12:38:33;;;;;;;5.43;2.03;;;5.90;83.90;;;;;;5008377;28;20418;-60
2024/02/23 12:41:01;;;;;;;9.37;2.20;;;5.90;85.40;;;;;;5007901;28;20435;-60
2024/02/23 12:43:27;;;;;;;5.50;2.27;;;5.90;81.80;;;;;;5007407;28;20431;-60
2024/02/23 12:45:56;;;;;;;3.10;1.80;;;5.90;84.20;;;;;;5008431;28;20466;-60
2024/02/23 12:48:22;;;;;;;4.20;1.53;;;5.90;88.90;;;;;;5009879;28;20513;-60
2024/02/23 12:50:48;;;;;;;6.30;1.83;;;5.90;89.90;;;;;;5005269;28;20589;-60